Time;durP1;ratioP1;P1;durP2;ratioP2;P2;SDS_P1;SDS_P2;PMS_P1;PMS_P2;Temp;Humidity;BMP_temperature;BMP_pressure;BME280_temperature;BME280_humidity;BME280_pressure;Samples;Min_cycle;Max_cycle;Signal;HPM_P1;HPM_P2
2023/04/15 00:01:48;;;;;;;7.70;6.80;;;;;;;9.56;88.03;96553.45;106630;1282;23683;-87
2023/04/15 00:04:17;;;;;;;9.40;6.50;;;;;;;9.52;87.87;96560.28;106630;1282;22644;-89
2023/04/15 00:06:52;;;;;;;7.20;6.00;;;;;;;9.50;87.57;96565.35;106637;1281;22870;-89
2023/04/15 00:09:20;;;;;;;6.70;5.80;;;;;;;9.48;87.68;96570.83;106701;1281;22539;-89
2023/04/15 00:11:49;;;;;;;9.70;6.70;;;;;;;9.48;87.32;96575.65;106757;1281;25542;-91
2023/04/15 00:14:17;;;;;;;8.00;6.40;;;;;;;9.46;87.52;96573.66;106637;1281;22633;-90
2023/04/15 00:16:45;;;;;;;7.90;7.10;;;;;;;9.44;87.35;96570.95;106669;1281;24004;-89
2023/04/15 00:19:13;;;;;;;8.80;7.00;;;;;;;9.41;87.12;96573.02;106579;1281;23250;-90
2023/04/15 00:21:41;;;;;;;9.90;7.10;;;;;;;9.38;87.44;96580.30;106714;1281;22540;-88
2023/04/15 00:24:09;;;;;;;9.00;6.90;;;;;;;9.34;87.25;96589.15;106573;1281;22626;-89
2023/04/15 00:26:37;;;;;;;10.90;7.10;;;;;;;9.32;87.55;96594.15;106575;1281;23871;-88
2023/04/15 00:29:05;;;;;;;8.50;7.30;;;;;;;9.31;87.93;96599.40;106607;1281;26666;-89
2023/04/15 00:31:33;;;;;;;8.90;6.90;;;;;;;9.28;88.04;96605.96;106503;1281;22537;-89
2023/04/15 00:34:01;;;;;;;7.80;6.80;;;;;;;9.27;88.25;96608.27;106641;1281;22537;-88
2023/04/15 00:36:30;;;;;;;7.00;5.80;;;;;;;9.23;87.76;96608.82;106813;1281;22551;-88
2023/04/15 00:38:58;;;;;;;7.20;6.40;;;;;;;9.18;87.77;96613.35;106610;1271;22550;-86
2023/04/15 00:41:26;;;;;;;6.90;5.30;;;;;;;9.15;88.07;96610.62;106589;1281;22530;-89
2023/04/15 00:43:54;;;;;;;7.50;6.00;;;;;;;9.11;88.12;96612.34;106574;1281;22547;-88
2023/04/15 00:46:25;;;;;;;7.40;6.10;;;;;;;9.10;88.45;96605.44;106674;1281;22530;-88
2023/04/15 00:48:54;;;;;;;9.30;6.50;;;;;;;9.07;88.14;96605.20;106640;1281;23017;-85
2023/04/15 00:51:22;;;;;;;8.00;6.80;;;;;;;9.06;88.29;96608.05;106689;1281;24344;-89
2023/04/15 00:53:50;;;;;;;7.30;6.10;;;;;;;9.03;88.01;96601.85;106706;1281;22538;-87
2023/04/15 00:56:23;;;;;;;7.00;5.90;;;;;;;9.00;88.13;96604.02;106757;1281;23441;-89
2023/04/15 00:58:51;;;;;;;10.70;6.20;;;;;;;9.00;87.74;96603.80;106824;1281;22531;-89
2023/04/15 01:01:25;;;;;;;6.40;5.20;;;;;;;9.01;87.61;96602.40;106845;1266;22908;-89
2023/04/15 01:03:55;;;;;;;6.80;6.10;;;;;;;9.03;87.72;96606.31;106664;1281;25385;-89
2023/04/15 01:06:23;;;;;;;6.90;6.00;;;;;;;9.01;87.87;96611.13;106940;1279;25278;-89
2023/04/15 01:08:53;;;;;;;7.70;6.30;;;;;;;8.98;87.66;96611.80;106891;1279;22709;-88
2023/04/15 01:11:22;;;;;;;7.30;6.60;;;;;;;8.98;87.64;96606.17;106777;1278;22558;-90
2023/04/15 01:13:51;;;;;;;9.30;7.60;;;;;;;8.96;87.32;96604.21;106876;1278;25259;-88
2023/04/15 01:16:20;;;;;;;11.30;8.50;;;;;;;8.96;87.22;96607.40;106703;1279;22632;-87
2023/04/15 01:18:48;;;;;;;10.00;7.30;;;;;;;8.96;87.57;96602.19;106776;1278;22732;-89
2023/04/15 01:21:17;;;;;;;7.70;6.60;;;;;;;8.95;87.63;96602.13;106742;1278;22737;-89
2023/04/15 01:23:47;;;;;;;7.50;6.80;;;;;;;8.91;87.55;96602.73;106821;1279;25454;-90
2023/04/15 01:26:16;;;;;;;7.40;6.70;;;;;;;8.88;87.38;96605.68;106983;1279;23200;-89
2023/04/15 01:28:45;;;;;;;7.60;5.70;;;;;;;8.85;87.45;96605.52;106975;1278;22539;-89
2023/04/15 01:31:14;;;;;;;11.80;7.90;;;;;;;8.85;87.56;96606.69;106978;1278;23014;-90
2023/04/15 01:33:42;;;;;;;8.90;6.90;;;;;;;8.87;87.18;96605.17;107026;1278;22570;-89
2023/04/15 01:36:10;;;;;;;9.30;7.90;;;;;;;8.88;87.14;96603.21;106940;1278;22595;-87
2023/04/15 01:38:38;;;;;;;7.70;6.80;;;;;;;8.87;86.94;96611.38;107190;1278;22835;-90
2023/04/15 01:41:07;;;;;;;9.50;7.50;;;;;;;8.83;87.07;96612.73;107116;1278;25956;-91
2023/04/15 01:43:36;;;;;;;7.30;6.50;;;;;;;8.78;87.02;96611.70;107027;1278;24246;-91
2023/04/15 01:46:05;;;;;;;7.60;6.20;;;;;;;8.76;87.11;96613.29;106968;1274;22563;-88
2023/04/15 01:48:33;;;;;;;8.20;7.30;;;;;;;8.75;87.07;96617.55;106934;1278;24226;-90
2023/04/15 01:51:03;;;;;;;9.70;7.60;;;;;;;8.74;86.76;96625.87;106910;1278;22547;-90
2023/04/15 01:53:32;;;;;;;7.50;6.20;;;;;;;8.73;86.70;96625.67;106853;1278;24259;-89
2023/04/15 01:56:00;;;;;;;7.60;5.60;;;;;;;8.73;86.79;96628.95;107021;1278;25317;-88
2023/04/15 01:58:28;;;;;;;5.90;5.30;;;;;;;8.73;86.79;96635.33;106893;1278;22654;-90
2023/04/15 02:00:56;;;;;;;6.70;5.20;;;;;;;8.71;87.02;96637.40;106686;1278;22650;-83
2023/04/15 02:03:24;;;;;;;6.80;6.10;;;;;;;8.69;86.92;96636.70;106620;1278;23358;-84
2023/04/15 02:05:52;;;;;;;7.70;7.00;;;;;;;8.66;86.55;96633.95;106780;1278;24303;-84
2023/04/15 02:08:21;;;;;;;9.80;7.80;;;;;;;8.65;86.47;96633.98;106829;1278;22538;-81
2023/04/15 02:10:49;;;;;;;13.10;11.90;;;;;;;8.65;86.61;96635.83;106731;1278;22634;-83
2023/04/15 02:13:17;;;;;;;7.20;6.50;;;;;;;8.63;86.41;96637.08;106302;1278;22600;-82
2023/04/15 02:15:47;;;;;;;7.00;6.30;;;;;;;8.61;86.46;96636.23;106805;1278;23150;-81
2023/04/15 02:18:15;;;;;;;6.80;6.10;;;;;;;8.60;86.25;96634.81;106592;1278;22587;-81
2023/04/15 02:20:44;;;;;;;8.10;6.90;;;;;;;8.58;86.47;96637.01;106696;1278;25253;-81
2023/04/15 02:23:12;;;;;;;9.20;8.40;;;;;;;8.53;86.35;96644.91;106485;1278;25412;-80
2023/04/15 02:25:43;;;;;;;9.00;8.10;;;;;;;8.51;86.32;96649.34;106440;1278;22531;-82
2023/04/15 02:28:21;;;;;;;7.90;6.90;;;;;;;8.50;86.13;96658.44;106461;1278;22640;-80
2023/04/15 02:30:53;;;;;;;7.40;6.70;;;;;;;8.49;86.06;96663.27;106347;1278;174402;-82
2023/04/15 02:33:21;;;;;;;8.40;7.20;;;;;;;8.45;85.88;96662.09;106526;1278;24072;-82
2023/04/15 02:35:49;;;;;;;8.60;7.70;;;;;;;8.39;85.88;96663.96;106527;1278;24351;-84
2023/04/15 02:38:17;;;;;;;9.10;7.00;;;;;;;8.36;86.28;96660.36;106431;1278;24325;-84
2023/04/15 02:40:45;;;;;;;9.00;7.10;;;;;;;8.29;85.97;96660.19;106691;1278;22654;-82
2023/04/15 02:43:13;;;;;;;10.90;9.30;;;;;;;8.19;85.97;96665.41;106455;1278;22535;-83
2023/04/15 02:45:42;;;;;;;13.70;9.70;;;;;;;8.11;85.73;96664.98;106527;1278;25538;-82
2023/04/15 02:48:10;;;;;;;20.70;18.80;;;;;;;8.08;85.89;96668.19;106715;1278;25647;-82
2023/04/15 02:50:39;;;;;;;12.60;11.30;;;;;;;8.04;85.93;96668.00;106666;1278;22563;-83
2023/04/15 02:53:09;;;;;;;8.10;7.30;;;;;;;7.96;85.62;96674.16;106498;1278;25294;-80
2023/04/15 02:55:37;;;;;;;11.00;8.40;;;;;;;7.87;85.57;96679.77;106452;1278;24286;-81
2023/04/15 02:58:06;;;;;;;7.90;7.00;;;;;;;7.79;85.77;96677.55;106765;1278;22604;-81
2023/04/15 03:00:34;;;;;;;9.50;7.50;;;;;;;7.74;85.94;96678.80;106686;1278;23002;-82
2023/04/15 03:03:04;;;;;;;11.20;9.30;;;;;;;7.69;85.85;96678.61;106689;1278;22630;-82
2023/04/15 03:05:32;;;;;;;9.30;8.10;;;;;;;7.62;86.24;96679.16;106724;1278;24343;-81
2023/04/15 03:08:01;;;;;;;8.90;8.00;;;;;;;7.60;86.33;96674.22;106676;1278;22531;-81
2023/04/15 03:10:30;;;;;;;8.70;6.90;;;;;;;7.59;86.40;96678.75;106766;1278;22525;-80
2023/04/15 03:12:58;;;;;;;8.10;7.10;;;;;;;7.59;86.47;96675.81;106723;1278;25414;-83
2023/04/15 03:15:26;;;;;;;12.10;7.90;;;;;;;7.59;86.39;96675.92;106752;1278;22633;-82
2023/04/15 03:17:55;;;;;;;10.20;7.20;;;;;;;7.60;86.29;96681.27;106719;1278;23324;-82
2023/04/15 03:20:23;;;;;;;6.00;5.30;;;;;;;7.62;86.30;96689.94;106687;1278;25486;-83
2023/04/15 03:22:52;;;;;;;6.80;5.40;;;;;;;7.63;86.27;96695.59;106657;1278;22651;-83
2023/04/15 03:25:20;;;;;;;6.70;5.70;;;;;;;7.62;85.63;96698.05;106693;1278;25493;-82
2023/04/15 03:27:48;;;;;;;6.40;5.70;;;;;;;7.60;86.12;96700.09;106727;1278;22537;-84
2023/04/15 03:30:17;;;;;;;7.20;6.10;;;;;;;7.57;85.79;96705.02;106731;1278;22794;-85
2023/04/15 03:32:45;;;;;;;18.10;16.40;;;;;;;7.53;85.88;96704.42;106745;1278;22622;-84
2023/04/15 03:35:13;;;;;;;14.70;13.40;;;;;;;7.49;85.82;96702.99;106819;1278;22531;-87
2023/04/15 03:37:41;;;;;;;11.00;10.00;;;;;;;7.44;85.62;96706.16;106748;1278;22529;-81
2023/04/15 03:40:10;;;;;;;8.50;6.60;;;;;;;7.41;85.55;96705.91;106845;1278;22584;-82
2023/04/15 03:42:38;;;;;;;8.10;6.10;;;;;;;7.36;85.33;96707.71;106740;1278;22634;-80
2023/04/15 03:45:06;;;;;;;6.00;5.10;;;;;;;7.24;85.46;96710.79;106699;1256;24122;-81
2023/04/15 03:47:34;;;;;;;6.30;5.60;;;;;;;6.99;85.58;96717.77;106687;1278;22638;-83
2023/04/15 03:50:03;;;;;;;7.20;5.70;;;;;;;6.73;85.69;96719.91;106699;1278;24391;-80
2023/04/15 03:52:31;;;;;;;9.00;7.70;;;;;;;6.55;85.77;96720.84;106750;1278;23022;-78
2023/04/15 03:54:59;;;;;;;17.60;15.40;;;;;;;6.42;85.87;96724.66;106553;1278;22541;-79
2023/04/15 03:57:27;;;;;;;17.80;15.70;;;;;;;6.36;86.06;96724.67;106770;1278;22929;-80
2023/04/15 03:59:55;;;;;;;19.20;15.60;;;;;;;6.27;86.17;96721.86;106750;1278;22604;-80
2023/04/15 04:02:23;;;;;;;14.00;12.50;;;;;;;6.20;86.24;96725.51;106786;1278;24511;-82
2023/04/15 04:04:51;;;;;;;11.10;10.00;;;;;;;6.06;86.55;96727.33;107195;1278;22533;-83
2023/04/15 04:07:22;;;;;;;11.80;10.60;;;;;;;5.96;86.53;96729.39;106809;1278;22528;-83
2023/04/15 04:09:50;;;;;;;8.60;7.70;;;;;;;5.86;86.69;96730.05;106714;1278;22542;-84
2023/04/15 04:12:18;;;;;;;10.40;8.40;;;;;;;5.77;86.83;96733.46;106672;1278;22609;-88
2023/04/15 04:14:47;;;;;;;8.90;8.00;;;;;;;5.70;87.28;96735.79;106758;1278;24254;-87
2023/04/15 04:17:15;;;;;;;13.90;10.40;;;;;;;5.56;87.77;96736.20;106722;1278;22651;-86
2023/04/15 04:19:42;;;;;;;17.70;16.00;;;;;;;5.47;87.77;96745.86;106769;1278;25290;-88
2023/04/15 04:22:11;;;;;;;14.90;13.50;;;;;;;5.49;87.72;96748.08;106830;1278;25495;-86
2023/04/15 04:24:39;;;;;;;16.10;14.60;;;;;;;5.55;87.75;96751.91;106765;1278;22629;-89
2023/04/15 04:27:07;;;;;;;19.30;17.40;;;;;;;5.63;87.41;96758.39;106709;1278;25349;-90
2023/04/15 04:29:35;;;;;;;21.20;19.20;;;;;;;5.74;87.57;96766.23;106767;1278;25317;-91
2023/04/15 04:32:03;;;;;;;42.50;38.70;;;;;;;5.79;87.43;96767.48;106784;1278;24469;-88
2023/04/15 04:34:31;;;;;;;12.40;11.10;;;;;;;5.75;88.02;96761.56;106743;1278;22527;-89
2023/04/15 04:36:59;;;;;;;12.70;11.40;;;;;;;5.68;88.49;96763.23;106844;1278;22640;-89
2023/04/15 04:39:27;;;;;;;11.50;9.90;;;;;;;5.60;88.31;96765.55;106781;1269;22651;-90
2023/04/15 04:41:55;;;;;;;15.80;14.20;;;;;;;5.59;88.15;96764.31;106801;1278;25701;-89
2023/04/15 04:44:23;;;;;;;13.60;10.80;;;;;;;5.61;88.08;96765.61;106807;1278;25523;-91
2023/04/15 04:46:51;;;;;;;13.00;11.70;;;;;;;5.65;88.17;96762.02;107404;1278;22539;-88
2023/04/15 04:49:19;;;;;;;31.40;28.40;;;;;;;5.67;88.51;96761.65;108352;1257;22528;-91
2023/04/15 04:51:47;;;;;;;24.90;22.60;;;;;;;5.67;88.69;96761.21;107152;1276;25876;-90
2023/04/15 04:54:16;;;;;;;12.80;11.50;;;;;;;5.70;88.61;96769.03;107098;1276;22640;-89
2023/04/15 04:56:44;;;;;;;16.60;14.80;;;;;;;5.76;88.62;96767.64;106918;1276;22509;-88
2023/04/15 04:59:12;;;;;;;21.20;19.10;;;;;;;5.83;89.13;96765.48;107342;1276;22553;-88
2023/04/15 05:01:40;;;;;;;21.70;19.60;;;;;;;5.88;89.29;96757.27;107817;1276;23015;-90
2023/04/15 05:04:08;;;;;;;20.40;18.40;;;;;;;5.93;89.39;96750.78;107230;1276;22629;-83
2023/04/15 05:06:37;;;;;;;16.90;15.30;;;;;;;6.01;89.56;96755.50;107337;1276;22533;-91
2023/04/15 05:09:05;;;;;;;19.30;16.30;;;;;;;6.08;89.77;96760.77;107124;1276;25363;-90
2023/04/15 05:11:33;;;;;;;16.90;15.20;;;;;;;6.19;89.68;96765.62;107328;1276;25251;-92
2023/04/15 05:14:01;;;;;;;26.20;23.70;;;;;;;6.33;89.57;96767.07;107592;1276;23086;-89
2023/04/15 05:16:29;;;;;;;25.50;23.00;;;;;;;6.48;89.50;96772.48;107083;1276;22648;-92
2023/04/15 05:18:57;;;;;;;22.10;20.00;;;;;;;6.63;89.53;96779.02;107143;1276;22737;-89
2023/04/15 05:21:26;;;;;;;14.70;13.20;;;;;;;6.73;89.90;96778.92;107272;1253;24083;-89
2023/04/15 05:23:54;;;;;;;12.40;11.10;;;;;;;6.83;89.81;96773.88;107194;1253;25680;-89
2023/04/15 05:26:23;;;;;;;12.10;9.90;;;;;;;6.94;89.62;96776.15;107648;1273;24549;-93
2023/04/15 05:28:51;;;;;;;10.20;9.20;;;;;;;7.06;89.61;96777.16;107815;1276;25306;-92
2023/04/15 05:31:19;;;;;;;9.90;8.80;;;;;;;7.18;89.19;96772.50;107175;1276;24349;-91
2023/04/15 05:33:48;;;;;;;10.50;9.10;;;;;;;7.31;89.19;96774.66;107225;1276;25332;-92
2023/04/15 05:36:16;;;;;;;13.70;9.20;;;;;;;7.43;89.07;96775.88;107299;1276;25342;-90
2023/04/15 05:38:44;;;;;;;11.90;8.70;;;;;;;7.55;88.87;96771.61;107800;1276;22524;-90
2023/04/15 05:41:14;;;;;;;13.60;9.50;;;;;;;7.64;88.21;96774.70;107614;1276;22524;-92
2023/04/15 05:43:45;;;;;;;10.60;8.60;;;;;;;7.74;87.97;96775.64;107126;1276;23576;-91
2023/04/15 05:46:13;;;;;;;9.10;7.90;;;;;;;7.85;87.20;96781.59;107123;1276;23883;-92
2023/04/15 05:48:41;;;;;;;9.80;8.20;;;;;;;7.93;86.89;96784.31;107055;1276;22646;-86
2023/04/15 05:51:09;;;;;;;9.90;8.00;;;;;;;8.03;86.71;96786.54;107262;1276;22521;-90
2023/04/15 05:53:37;;;;;;;8.50;6.80;;;;;;;8.12;86.60;96787.30;107289;1276;22544;-89
2023/04/15 05:56:05;;;;;;;11.00;6.60;;;;;;;8.26;84.80;96791.87;107365;1276;22546;-88
2023/04/15 05:58:33;;;;;;;9.10;6.00;;;;;;;8.38;85.03;96795.61;107346;1276;22645;-88
2023/04/15 06:01:02;;;;;;;7.60;6.10;;;;;;;8.52;82.92;96797.95;107385;1276;22521;-90
2023/04/15 06:03:30;;;;;;;5.90;4.60;;;;;;;8.59;82.38;96800.11;107219;1276;22583;-90
2023/04/15 06:05:59;;;;;;;10.20;6.50;;;;;;;8.62;80.95;96805.17;107198;1276;22509;-89
2023/04/15 06:08:27;;;;;;;7.70;5.30;;;;;;;8.65;81.46;96807.77;107201;1276;24215;-93
2023/04/15 06:10:57;;;;;;;11.90;6.10;;;;;;;8.69;80.77;96813.46;107221;1276;24247;-89
2023/04/15 06:13:25;;;;;;;5.80;4.80;;;;;;;8.70;81.10;96812.46;107151;1276;22591;-87
2023/04/15 06:15:54;;;;;;;7.10;5.50;;;;;;;8.74;80.27;96815.56;107245;1276;22626;-91
2023/04/15 06:18:23;;;;;;;6.90;4.30;;;;;;;8.77;79.40;96814.00;107235;1276;24390;-92
2023/04/15 06:20:51;;;;;;;7.20;5.00;;;;;;;8.78;78.92;96813.36;107168;1275;22517;-90
2023/04/15 06:23:19;;;;;;;6.10;4.80;;;;;;;8.82;78.25;96812.41;107373;1273;22546;-91
2023/04/15 06:25:47;;;;;;;6.10;4.70;;;;;;;8.92;77.25;96815.21;107660;1276;22641;-90
2023/04/15 06:28:15;;;;;;;7.30;5.00;;;;;;;9.06;77.79;96814.31;107766;1276;22570;-88
2023/04/15 06:30:43;;;;;;;6.80;5.10;;;;;;;9.21;77.07;96819.38;108055;1276;22718;-91
2023/04/15 06:33:11;;;;;;;4.90;4.10;;;;;;;9.33;76.54;96823.37;107891;1276;22634;-90
2023/04/15 06:35:39;;;;;;;4.90;3.90;;;;;;;9.45;75.20;96823.20;108017;1276;22485;-91
2023/04/15 06:38:07;;;;;;;7.50;4.20;;;;;;;9.50;73.28;96829.81;108627;1276;22530;-90
2023/04/15 06:40:35;;;;;;;8.10;4.60;;;;;;;9.46;74.74;96827.09;108083;1276;25338;-90
2023/04/15 06:43:03;;;;;;;5.40;4.10;;;;;;;9.51;75.39;96824.91;107219;1276;24847;-89
2023/04/15 06:45:32;;;;;;;5.60;4.50;;;;;;;9.53;74.83;96826.34;107315;1276;25872;-92
2023/04/15 06:48:00;;;;;;;4.60;4.10;;;;;;;9.50;72.35;96834.11;107283;1266;22554;-90
2023/04/15 06:50:28;;;;;;;5.60;4.40;;;;;;;9.42;71.60;96836.58;107150;1276;22658;-92
2023/04/15 06:52:56;;;;;;;7.00;4.40;;;;;;;9.40;72.13;96834.98;107206;1276;22641;-92
2023/04/15 06:55:24;;;;;;;5.50;4.00;;;;;;;9.44;71.93;96837.43;107245;1276;25306;-92
2023/04/15 06:57:52;;;;;;;4.80;3.90;;;;;;;9.51;71.35;96839.05;107060;1276;22581;-92
2023/04/15 07:00:20;;;;;;;4.60;3.90;;;;;;;9.60;70.61;96841.45;107181;1276;24308;-92
2023/04/15 07:02:48;;;;;;;4.50;3.30;;;;;;;9.63;69.80;96844.56;107641;1276;22632;-92
2023/04/15 07:05:16;;;;;;;5.30;3.90;;;;;;;9.65;69.72;96851.19;107789;1276;22572;-93
2023/04/15 07:07:44;;;;;;;5.50;4.20;;;;;;;9.69;69.47;96847.67;107769;1276;25945;-92
2023/04/15 07:10:13;;;;;;;6.20;4.60;;;;;;;9.72;68.95;96849.56;108078;1276;25320;-93
2023/04/15 07:12:41;;;;;;;6.30;4.60;;;;;;;9.73;69.28;96853.62;108297;1276;24048;-92
2023/04/15 07:15:10;;;;;;;11.10;4.80;;;;;;;9.76;68.99;96859.39;108158;1276;25297;-90
2023/04/15 07:17:38;;;;;;;6.60;4.70;;;;;;;9.77;68.90;96858.18;107633;1276;22583;-92
2023/04/15 07:20:06;;;;;;;6.90;5.80;;;;;;;9.84;69.47;96863.77;107536;1273;22538;-90
2023/04/15 07:22:34;;;;;;;5.80;4.90;;;;;;;9.97;69.66;96865.20;107543;1276;22686;-89
2023/04/15 07:25:03;;;;;;;6.00;4.20;;;;;;;10.05;67.95;96865.73;107452;1276;24267;-91
2023/04/15 07:27:31;;;;;;;6.10;4.50;;;;;;;10.09;68.71;96863.66;107662;1276;24141;-93
2023/04/15 07:29:59;;;;;;;7.30;4.90;;;;;;;10.20;69.68;96863.98;107708;1276;24204;-92
2023/04/15 07:32:27;;;;;;;7.20;4.00;;;;;;;10.34;68.86;96863.59;107413;1276;22633;-91
2023/04/15 07:34:55;;;;;;;6.30;4.00;;;;;;;10.36;68.36;96858.54;107464;1276;22615;-92
2023/04/15 07:37:23;;;;;;;10.50;4.40;;;;;;;10.48;68.04;96868.10;107024;1276;22625;-90
2023/04/15 07:39:52;;;;;;;8.40;4.90;;;;;;;10.59;68.86;96863.59;107299;1276;22790;-91
2023/04/15 07:42:21;;;;;;;7.30;4.90;;;;;;;10.69;68.57;96868.28;107283;1276;23896;-91
2023/04/15 07:44:48;;;;;;;8.90;5.20;;;;;;;10.86;68.65;96867.73;107429;1276;22577;-90
2023/04/15 07:47:16;;;;;;;8.00;5.40;;;;;;;11.00;67.03;96871.85;107541;1276;22764;-90
2023/04/15 07:49:45;;;;;;;8.60;6.00;;;;;;;11.04;67.59;96875.30;107166;1276;23521;-89
2023/04/15 07:52:13;;;;;;;8.00;5.90;;;;;;;11.11;67.89;96872.95;107156;1276;25511;-89
2023/04/15 07:54:41;;;;;;;8.20;6.00;;;;;;;11.19;66.86;96874.62;107129;1276;22522;-88
2023/04/15 07:57:09;;;;;;;7.50;5.40;;;;;;;11.18;64.85;96875.66;107277;1276;23148;-89
2023/04/15 07:59:37;;;;;;;7.70;5.70;;;;;;;11.07;65.79;96877.04;107161;1276;24356;-86
2023/04/15 08:02:05;;;;;;;8.00;5.00;;;;;;;11.16;66.47;96873.52;107157;1276;22556;-87
2023/04/15 08:04:33;;;;;;;8.80;5.30;;;;;;;11.31;67.63;96873.86;107604;1276;22530;-91
2023/04/15 08:07:03;;;;;;;6.10;5.10;;;;;;;11.57;68.10;96873.10;107599;1276;23145;-89
2023/04/15 08:09:31;;;;;;;8.80;4.70;;;;;;;11.79;67.86;96874.98;107894;1276;22647;-90
2023/04/15 08:11:59;;;;;;;5.60;4.10;;;;;;;11.98;67.52;96876.30;107519;1276;22523;-90
2023/04/15 08:14:28;;;;;;;6.30;4.50;;;;;;;12.16;68.03;96874.99;107644;1276;24096;-92
2023/04/15 08:16:56;;;;;;;9.90;4.60;;;;;;;12.39;68.03;96873.83;107548;1276;25425;-91
2023/04/15 08:19:24;;;;;;;7.90;5.30;;;;;;;12.55;67.60;96876.53;107582;1276;22731;-83
2023/04/15 08:21:52;;;;;;;4.90;4.10;;;;;;;12.71;67.49;96873.64;107474;1276;22645;-83
2023/04/15 08:24:20;;;;;;;6.30;4.20;;;;;;;12.84;67.49;96874.48;107398;1276;24388;-81
2023/04/15 08:26:48;;;;;;;4.80;3.60;;;;;;;12.91;66.80;96873.34;106920;1276;22660;-82
2023/04/15 08:29:16;;;;;;;6.30;4.10;;;;;;;12.97;65.46;96881.33;106869;1253;22633;-82
2023/04/15 08:31:44;;;;;;;7.30;4.30;;;;;;;13.02;64.76;96881.12;107148;1276;22718;-83
2023/04/15 08:34:12;;;;;;;4.90;3.10;;;;;;;13.05;64.01;96880.48;107147;1276;23141;-83
2023/04/15 08:36:42;;;;;;;5.10;3.50;;;;;;;13.15;63.54;96878.80;107045;1276;24389;-82
2023/04/15 08:39:10;;;;;;;5.20;3.60;;;;;;;13.27;64.28;96878.25;107162;1276;22535;-81
2023/04/15 08:42:06;;;;;;;5.70;4.00;;;;;;;13.40;63.49;96879.39;106848;1276;24380;-82
2023/04/15 08:44:35;;;;;;;7.00;4.30;;;;;;;13.57;64.16;96875.80;107169;1276;24379;-85
2023/04/15 08:47:07;;;;;;;5.70;4.10;;;;;;;13.67;63.23;96878.34;107126;1276;26679;-82
2023/04/15 08:49:42;;;;;;;8.50;5.80;;;;;;;13.77;63.08;96885.11;107212;1276;23155;-82
2023/04/15 08:52:11;;;;;;;8.80;6.00;;;;;;;13.70;59.97;96883.23;107183;1276;23068;-81
2023/04/15 08:54:39;;;;;;;9.60;6.80;;;;;;;13.73;61.84;96882.50;106848;1276;22662;-87
2023/04/15 08:57:07;;;;;;;9.10;6.70;;;;;;;13.83;60.16;96884.21;107122;1276;22527;-79
2023/04/15 08:59:35;;;;;;;11.50;6.90;;;;;;;13.79;58.07;96885.23;107062;1276;22694;-82
2023/04/15 09:02:03;;;;;;;9.40;5.90;;;;;;;13.51;56.80;96883.98;107176;1276;22780;-85
2023/04/15 09:04:32;;;;;;;10.20;7.20;;;;;;;13.26;57.25;96885.73;107156;1276;22991;-83
2023/04/15 09:07:01;;;;;;;9.00;7.00;;;;;;;13.17;59.19;96885.67;107108;1276;22632;-83
2023/04/15 09:09:29;;;;;;;12.00;8.30;;;;;;;13.21;59.97;96884.94;107088;1276;22523;-84
2023/04/15 09:11:57;;;;;;;9.10;6.20;;;;;;;13.23;60.45;96885.98;107170;1276;22528;-83
2023/04/15 09:14:24;;;;;;;9.10;6.20;;;;;;;13.26;59.30;96885.79;107125;1276;22730;-83
2023/04/15 09:17:01;;;;;;;8.80;6.30;;;;;;;13.12;57.87;96884.80;107080;1276;24263;-85
2023/04/15 09:19:30;;;;;;;10.90;6.90;;;;;;;12.92;57.44;96881.25;107197;1276;22568;-85
2023/04/15 09:21:59;;;;;;;10.10;6.60;;;;;;;12.74;57.69;96882.77;106928;1253;22540;-85
2023/04/15 09:24:38;;;;;;;10.60;7.10;;;;;;;12.66;59.04;96879.83;107138;1276;22727;-85
2023/04/15 09:27:06;;;;;;;8.70;6.10;;;;;;;12.83;59.17;96879.95;107220;1276;24268;-83
2023/04/15 09:29:34;;;;;;;8.80;6.10;;;;;;;12.96;59.34;96879.36;107127;1276;22647;-84
2023/04/15 09:32:10;;;;;;;7.10;5.50;;;;;;;13.06;57.97;96880.08;107140;1276;23280;-85
2023/04/15 09:34:38;;;;;;;10.30;5.70;;;;;;;12.93;56.58;96883.75;107174;1276;24380;-92
2023/04/15 09:37:06;;;;;;;11.50;5.70;;;;;;;12.80;56.83;96884.02;107289;1276;22586;-86
2023/04/15 09:39:46;;;;;;;9.00;5.80;;;;;;;12.81;58.32;96882.77;107130;1276;22622;-85
2023/04/15 09:42:15;;;;;;;9.00;5.60;;;;;;;13.03;59.13;96882.06;107204;1276;22606;-87
2023/04/15 09:44:44;;;;;;;7.20;5.20;;;;;;;13.32;58.83;96884.09;107188;1276;23900;-86
2023/04/15 09:47:30;;;;;;;6.40;5.00;;;;;;;13.63;57.82;96882.54;107208;1276;22609;-91
2023/04/15 09:50:00;;;;;;;8.50;5.40;;;;;;;13.77;56.74;96882.80;107399;1276;25297;-89
2023/04/15 09:52:29;;;;;;;8.20;5.30;;;;;;;13.81;57.89;96884.44;107324;1276;25017;-89
2023/04/15 09:54:58;;;;;;;7.10;4.40;;;;;;;13.96;56.83;96891.90;107215;1276;22582;-91
2023/04/15 09:57:35;;;;;;;7.60;4.90;;;;;;;14.04;57.01;96890.35;107060;1276;22656;-91
2023/04/15 10:00:06;;;;;;;7.30;3.80;;;;;;;14.11;57.45;96884.58;107425;1276;25243;-91
2023/04/15 10:02:38;;;;;;;6.70;4.00;;;;;;;14.16;57.80;96882.23;107534;1276;22716;-90
2023/04/15 10:05:11;;;;;;;6.40;5.30;;;;;;;14.27;58.39;96888.41;107344;1276;22514;-90
2023/04/15 10:07:42;;;;;;;6.80;5.00;;;;;;;14.33;57.37;96886.63;107622;1276;22580;-92
2023/04/15 10:10:10;;;;;;;7.50;4.50;;;;;;;14.35;57.97;96885.38;107394;1273;22531;-87
2023/04/15 10:12:40;;;;;;;6.30;4.70;;;;;;;14.39;56.76;96883.23;107084;1274;22668;-89
2023/04/15 10:15:20;;;;;;;4.50;3.90;;;;;;;14.37;56.73;96883.16;108374;1276;22781;-93
2023/04/15 10:17:49;;;;;;;7.10;5.60;;;;;;;14.38;56.53;96885.73;108196;1276;22699;-86
2023/04/15 10:20:18;;;;;;;5.30;4.30;;;;;;;14.44;56.89;96886.89;107331;1276;22595;-86
2023/04/15 10:22:47;;;;;;;9.60;4.40;;;;;;;14.54;56.18;96884.30;107153;1276;22602;-88
2023/04/15 10:25:15;;;;;;;6.80;3.80;;;;;;;14.68;56.32;96881.57;107060;1276;25360;-87
2023/04/15 10:27:44;;;;;;;6.00;4.20;;;;;;;14.87;56.35;96880.10;107144;1276;22531;-88
2023/04/15 10:30:12;;;;;;;6.20;3.70;;;;;;;15.00;56.19;96877.59;107306;1253;22637;-88
2023/04/15 10:32:41;;;;;;;6.60;5.00;;;;;;;15.24;55.56;96874.66;107165;1276;25722;-84
2023/04/15 10:35:10;;;;;;;5.70;4.30;;;;;;;15.58;55.81;96869.03;107318;1276;22579;-89
2023/04/15 10:37:38;;;;;;;5.30;4.00;;;;;;;15.94;55.36;96867.45;106951;1276;22531;-82
2023/04/15 10:40:30;;;;;;;6.40;4.00;;;;;;;16.08;54.87;96867.02;107012;1276;25460;-81
2023/04/15 10:43:00;;;;;;;4.30;3.40;;;;;;;16.19;53.41;96866.52;107173;1276;25287;-84
2023/04/15 10:45:34;;;;;;;4.50;3.50;;;;;;;16.28;52.67;96870.19;107062;1276;25388;-83
2023/04/15 10:48:06;;;;;;;4.00;3.10;;;;;;;16.45;51.68;96873.59;107088;1276;22601;-82
2023/04/15 10:50:36;;;;;;;5.30;3.70;;;;;;;16.38;52.22;96876.50;107207;1276;22629;-83
2023/04/15 10:53:04;;;;;;;8.70;4.40;;;;;;;16.36;51.13;96875.60;107664;1276;22783;-93
2023/04/15 10:55:34;;;;;;;4.90;3.60;;;;;;;16.26;52.28;96867.52;107792;1275;22548;-93
2023/04/15 10:58:02;;;;;;;3.90;3.20;;;;;;;16.27;53.07;96870.40;107407;1276;22769;-82
2023/04/15 11:00:31;;;;;;;3.80;3.30;;;;;;;16.36;53.60;96868.85;107228;1276;22583;-90
2023/04/15 11:03:08;;;;;;;5.80;3.70;;;;;;;16.38;52.62;96869.81;107016;1276;22648;-91
2023/04/15 11:05:40;;;;;;;4.70;3.70;;;;;;;16.27;52.77;96870.16;107061;1276;24210;-93
2023/04/15 11:08:50;;;;;;;6.20;4.80;;;;;;;16.30;52.19;96871.61;107753;1276;22545;-93
2023/04/15 11:12:05;;;;;;;4.90;4.00;;;;;;;16.22;51.83;96871.14;107125;1276;26537;-91
2023/04/15 11:14:40;;;;;;;4.00;3.30;;;;;;;16.01;51.43;96874.33;107161;1276;23921;-90
2023/04/15 11:17:08;;;;;;;6.40;3.30;;;;;;;15.90;50.98;96873.42;107374;1276;22578;-90
2023/04/15 11:40:28;;;;;;;5.20;3.30;;;;;;;16.56;47.51;96886.27;108380;1273;1021186;-91
2023/04/15 11:43:12;;;;;;;3.90;2.90;;;;;;;16.62;47.60;96885.92;106576;1258;3325406;-90
2023/04/15 11:45:58;;;;;;;3.50;2.70;;;;;;;16.52;47.80;96885.28;109141;1258;26572;-91
2023/04/15 11:48:27;;;;;;;4.30;3.40;;;;;;;16.48;47.53;96884.75;109121;1258;22633;-88
2023/04/15 11:50:55;;;;;;;5.00;3.60;;;;;;;16.44;46.35;96882.04;109098;1258;22625;-86
2023/04/15 11:53:23;;;;;;;5.90;3.30;;;;;;;16.40;46.90;96889.66;108979;1258;22532;-90
2023/04/15 11:55:52;;;;;;;5.30;3.90;;;;;;;16.44;46.89;96888.88;110118;1247;25518;-87
2023/04/15 11:58:24;;;;;;;5.30;4.00;;;;;;;16.48;45.90;96890.66;109931;1247;23154;-88